sensor_id;sensor_type;location;lat;lon;timestamp;P1;durP1;ratioP1;P2;durP2;ratioP2
32106;SDS011;18622;51.998;10.440;2023-03-01T03:47:03;20.23;;;8.85;;
32106;SDS011;18622;51.998;10.440;2023-03-01T03:49:30;21.97;;;9.30;;
32106;SDS011;18622;51.998;10.440;2023-03-01T03:51:58;22.33;;;9.83;;
32106;SDS011;18622;51.998;10.440;2023-03-01T03:54:26;19.77;;;9.40;;
32106;SDS011;18622;51.998;10.440;2023-03-01T03:56:54;21.10;;;9.87;;
32106;SDS011;18622;51.998;10.440;2023-03-01T03:59:21;18.10;;;9.30;;
32106;SDS011;18622;51.998;10.440;2023-03-01T04:01:49;17.90;;;10.20;;
32106;SDS011;18622;51.998;10.440;2023-03-01T04:04:17;24.63;;;9.37;;
32106;SDS011;18622;51.998;10.440;2023-03-01T04:06:45;21.77;;;9.17;;
32106;SDS011;18622;51.998;10.440;2023-03-01T04:09:14;27.98;;;8.63;;
32106;SDS011;18622;51.998;10.440;2023-03-01T04:11:41;21.27;;;8.93;;
32106;SDS011;18622;51.998;10.440;2023-03-01T04:14:09;23.47;;;9.60;;
32106;SDS011;18622;51.998;10.440;2023-03-01T04:16:37;22.77;;;9.37;;
32106;SDS011;18622;51.998;10.440;2023-03-01T04:19:05;26.50;;;9.03;;
32106;SDS011;18622;51.998;10.440;2023-03-01T04:21:33;34.67;;;10.53;;
32106;SDS011;18622;51.998;10.440;2023-03-01T04:24:01;21.65;;;9.30;;
32106;SDS011;18622;51.998;10.440;2023-03-01T04:26:29;21.30;;;10.17;;
32106;SDS011;18622;51.998;10.440;2023-03-01T04:28:57;22.73;;;11.30;;
32106;SDS011;18622;51.998;10.440;2023-03-01T04:31:25;23.43;;;10.73;;
32106;SDS011;18622;51.998;10.440;2023-03-01T04:33:55;21.90;;;10.68;;
32106;SDS011;18622;51.998;10.440;2023-03-01T04:36:24;29.95;;;11.50;;
32106;SDS011;18622;51.998;10.440;2023-03-01T04:38:52;26.77;;;10.63;;
32106;SDS011;18622;51.998;10.440;2023-03-01T04:41:21;20.67;;;10.53;;
32106;SDS011;18622;51.998;10.440;2023-03-01T04:43:50;28.05;;;10.10;;
32106;SDS011;18622;51.998;10.440;2023-03-01T04:46:19;26.13;;;10.87;;
32106;SDS011;18622;51.998;10.440;2023-03-01T04:48:47;20.35;;;10.08;;
32106;SDS011;18622;51.998;10.440;2023-03-01T04:51:15;24.10;;;9.77;;
32106;SDS011;18622;51.998;10.440;2023-03-01T04:53:44;25.55;;;10.35;;
32106;SDS011;18622;51.998;10.440;2023-03-01T04:56:12;17.53;;;8.60;;
32106;SDS011;18622;51.998;10.440;2023-03-01T04:58:39;24.82;;;10.55;;
32106;SDS011;18622;51.998;10.440;2023-03-01T05:01:08;23.17;;;11.37;;
32106;SDS011;18622;51.998;10.440;2023-03-01T05:03:39;25.20;;;10.43;;
32106;SDS011;18622;51.998;10.440;2023-03-01T05:06:06;26.57;;;10.37;;
32106;SDS011;18622;51.998;10.440;2023-03-01T05:08:34;23.83;;;10.97;;
32106;SDS011;18622;51.998;10.440;2023-03-01T05:11:04;20.75;;;9.75;;
32106;SDS011;18622;51.998;10.440;2023-03-01T05:13:35;25.00;;;10.95;;
32106;SDS011;18622;51.998;10.440;2023-03-01T05:16:04;20.40;;;9.40;;
32106;SDS011;18622;51.998;10.440;2023-03-01T05:18:33;23.62;;;10.40;;
32106;SDS011;18622;51.998;10.440;2023-03-01T05:21:03;30.73;;;11.17;;
32106;SDS011;18622;51.998;10.440;2023-03-01T05:23:32;19.55;;;9.13;;
32106;SDS011;18622;51.998;10.440;2023-03-01T05:26:01;25.25;;;9.73;;
32106;SDS011;18622;51.998;10.440;2023-03-01T05:28:30;21.42;;;10.18;;
32106;SDS011;18622;51.998;10.440;2023-03-01T05:30:58;27.05;;;11.55;;
32106;SDS011;18622;51.998;10.440;2023-03-01T05:33:26;22.83;;;8.63;;
32106;SDS011;18622;51.998;10.440;2023-03-01T05:35:54;24.07;;;10.37;;
32106;SDS011;18622;51.998;10.440;2023-03-01T05:38:23;24.30;;;9.27;;
32106;SDS011;18622;51.998;10.440;2023-03-01T05:40:51;27.50;;;10.57;;
32106;SDS011;18622;51.998;10.440;2023-03-01T05:43:19;30.33;;;11.90;;
32106;SDS011;18622;51.998;10.440;2023-03-01T05:45:47;28.77;;;11.63;;
32106;SDS011;18622;51.998;10.440;2023-03-01T05:48:15;25.20;;;9.83;;
32106;SDS011;18622;51.998;10.440;2023-03-01T05:50:44;25.45;;;11.22;;
32106;SDS011;18622;51.998;10.440;2023-03-01T05:53:15;28.77;;;10.93;;
32106;SDS011;18622;51.998;10.440;2023-03-01T05:55:44;27.60;;;11.57;;
32106;SDS011;18622;51.998;10.440;2023-03-01T05:58:18;23.02;;;10.08;;
32106;SDS011;18622;51.998;10.440;2023-03-01T06:00:46;29.98;;;11.40;;
32106;SDS011;18622;51.998;10.440;2023-03-01T06:03:15;24.52;;;10.82;;
32106;SDS011;18622;51.998;10.440;2023-03-01T06:05:44;25.27;;;11.38;;
32106;SDS011;18622;51.998;10.440;2023-03-01T06:08:12;26.30;;;10.90;;
32106;SDS011;18622;51.998;10.440;2023-03-01T06:10:40;30.47;;;12.27;;
32106;SDS011;18622;51.998;10.440;2023-03-01T06:13:08;23.87;;;11.30;;
32106;SDS011;18622;51.998;10.440;2023-03-01T06:15:36;27.63;;;11.77;;
32106;SDS011;18622;51.998;10.440;2023-03-01T06:18:04;28.60;;;11.50;;
32106;SDS011;18622;51.998;10.440;2023-03-01T06:20:31;31.87;;;13.07;;
32106;SDS011;18622;51.998;10.440;2023-03-01T06:22:59;27.50;;;11.70;;
32106;SDS011;18622;51.998;10.440;2023-03-01T06:25:27;26.30;;;11.03;;
32106;SDS011;18622;51.998;10.440;2023-03-01T06:27:55;28.03;;;11.70;;
32106;SDS011;18622;51.998;10.440;2023-03-01T15:47:29;11.25;;;5.80;;
32106;SDS011;18622;51.998;10.440;2023-03-01T15:49:58;13.35;;;5.53;;
32106;SDS011;18622;51.998;10.440;2023-03-01T15:52:28;9.88;;;5.75;;
32106;SDS011;18622;51.998;10.440;2023-03-01T15:55:00;12.50;;;6.35;;
32106;SDS011;18622;51.998;10.440;2023-03-01T15:57:29;9.28;;;5.55;;
32106;SDS011;18622;51.998;10.440;2023-03-01T15:59:57;11.57;;;4.93;;
32106;SDS011;18622;51.998;10.440;2023-03-01T16:02:25;10.97;;;5.67;;
32106;SDS011;18622;51.998;10.440;2023-03-01T16:04:53;13.87;;;5.73;;
32106;SDS011;18622;51.998;10.440;2023-03-01T16:07:21;9.40;;;5.17;;
32106;SDS011;18622;51.998;10.440;2023-03-01T16:09:50;6.63;;;4.40;;
32106;SDS011;18622;51.998;10.440;2023-03-01T16:12:17;7.33;;;4.67;;
32106;SDS011;18622;51.998;10.440;2023-03-01T16:14:47;8.63;;;5.65;;
32106;SDS011;18622;51.998;10.440;2023-03-01T16:17:14;11.27;;;5.23;;
32106;SDS011;18622;51.998;10.440;2023-03-01T16:19:42;7.97;;;5.13;;
32106;SDS011;18622;51.998;10.440;2023-03-01T16:22:10;9.10;;;4.83;;
32106;SDS011;18622;51.998;10.440;2023-03-01T16:24:38;7.50;;;5.17;;
32106;SDS011;18622;51.998;10.440;2023-03-01T16:27:06;11.20;;;4.95;;
32106;SDS011;18622;51.998;10.440;2023-03-01T16:29:34;8.70;;;5.37;;
32106;SDS011;18622;51.998;10.440;2023-03-01T16:32:02;13.67;;;4.67;;
32106;SDS011;18622;51.998;10.440;2023-03-01T16:34:30;9.00;;;5.10;;
32106;SDS011;18622;51.998;10.440;2023-03-01T16:36:58;10.53;;;5.17;;
32106;SDS011;18622;51.998;10.440;2023-03-01T16:39:26;11.13;;;5.50;;
32106;SDS011;18622;51.998;10.440;2023-03-01T16:41:53;10.50;;;5.10;;
32106;SDS011;18622;51.998;10.440;2023-03-01T16:44:21;12.00;;;6.10;;
32106;SDS011;18622;51.998;10.440;2023-03-01T16:46:49;16.07;;;8.83;;
32106;SDS011;18622;51.998;10.440;2023-03-01T16:49:17;22.40;;;10.37;;
32106;SDS011;18622;51.998;10.440;2023-03-01T16:51:45;20.87;;;10.90;;
32106;SDS011;18622;51.998;10.440;2023-03-01T16:54:12;15.70;;;8.63;;
32106;SDS011;18622;51.998;10.440;2023-03-01T16:56:40;26.83;;;9.10;;
32106;SDS011;18622;51.998;10.440;2023-03-01T16:59:08;24.77;;;11.27;;
32106;SDS011;18622;51.998;10.440;2023-03-01T17:01:36;20.47;;;10.97;;
32106;SDS011;18622;51.998;10.440;2023-03-01T17:04:05;18.67;;;9.60;;
32106;SDS011;18622;51.998;10.440;2023-03-01T17:06:33;17.73;;;10.67;;
32106;SDS011;18622;51.998;10.440;2023-03-01T17:09:01;19.67;;;10.37;;
32106;SDS011;18622;51.998;10.440;2023-03-01T17:11:29;21.40;;;9.00;;
32106;SDS011;18622;51.998;10.440;2023-03-01T17:13:57;13.17;;;6.67;;
32106;SDS011;18622;51.998;10.440;2023-03-01T17:16:25;15.37;;;8.13;;
32106;SDS011;18622;51.998;10.440;2023-03-01T17:18:53;9.93;;;6.80;;
32106;SDS011;18622;51.998;10.440;2023-03-01T17:21:20;10.90;;;5.90;;
32106;SDS011;18622;51.998;10.440;2023-03-01T17:23:48;9.90;;;6.10;;
32106;SDS011;18622;51.998;10.440;2023-03-01T17:26:17;10.93;;;6.05;;
32106;SDS011;18622;51.998;10.440;2023-03-01T17:28:45;9.40;;;5.37;;
32106;SDS011;18622;51.998;10.440;2023-03-01T17:31:14;12.60;;;6.23;;
32106;SDS011;18622;51.998;10.440;2023-03-01T17:33:42;13.53;;;6.30;;
32106;SDS011;18622;51.998;10.440;2023-03-01T17:36:10;11.53;;;6.27;;
32106;SDS011;18622;51.998;10.440;2023-03-01T17:38:37;8.43;;;5.13;;
32106;SDS011;18622;51.998;10.440;2023-03-01T17:41:05;10.87;;;5.70;;
32106;SDS011;18622;51.998;10.440;2023-03-01T17:43:33;14.50;;;6.53;;
32106;SDS011;18622;51.998;10.440;2023-03-01T17:46:01;11.60;;;5.87;;
32106;SDS011;18622;51.998;10.440;2023-03-01T17:48:29;16.63;;;7.57;;
32106;SDS011;18622;51.998;10.440;2023-03-01T17:50:57;15.03;;;7.47;;
32106;SDS011;18622;51.998;10.440;2023-03-01T17:53:24;14.50;;;7.13;;
32106;SDS011;18622;51.998;10.440;2023-03-01T17:55:58;17.40;;;8.73;;
32106;SDS011;18622;51.998;10.440;2023-03-01T17:58:23;17.80;;;9.15;;
32106;SDS011;18622;51.998;10.440;2023-03-01T18:00:51;24.53;;;12.40;;
32106;SDS011;18622;51.998;10.440;2023-03-01T18:03:18;17.20;;;8.53;;
32106;SDS011;18622;51.998;10.440;2023-03-01T18:05:46;16.87;;;7.93;;
32106;SDS011;18622;51.998;10.440;2023-03-01T18:08:15;15.63;;;8.60;;
32106;SDS011;18622;51.998;10.440;2023-03-01T18:10:43;21.00;;;10.77;;
32106;SDS011;18622;51.998;10.440;2023-03-01T18:13:10;17.53;;;7.93;;
32106;SDS011;18622;51.998;10.440;2023-03-01T18:15:39;22.35;;;11.85;;
32106;SDS011;18622;51.998;10.440;2023-03-01T18:18:07;21.97;;;10.20;;
32106;SDS011;18622;51.998;10.440;2023-03-01T18:20:35;15.37;;;8.77;;
32106;SDS011;18622;51.998;10.440;2023-03-01T18:23:03;15.97;;;8.33;;
32106;SDS011;18622;51.998;10.440;2023-03-01T18:25:31;16.80;;;9.28;;
32106;SDS011;18622;51.998;10.440;2023-03-01T18:27:59;14.63;;;8.13;;
32106;SDS011;18622;51.998;10.440;2023-03-01T18:30:26;13.73;;;7.27;;
32106;SDS011;18622;51.998;10.440;2023-03-01T18:32:54;46.90;;;8.83;;
32106;SDS011;18622;51.998;10.440;2023-03-01T18:35:22;18.40;;;7.87;;
32106;SDS011;18622;51.998;10.440;2023-03-01T18:37:50;16.57;;;9.13;;
32106;SDS011;18622;51.998;10.440;2023-03-01T18:40:18;24.87;;;12.50;;
32106;SDS011;18622;51.998;10.440;2023-03-01T18:42:46;25.17;;;11.80;;
32106;SDS011;18622;51.998;10.440;2023-03-01T18:45:14;19.33;;;10.67;;
32106;SDS011;18622;51.998;10.440;2023-03-01T18:47:42;21.37;;;11.63;;
32106;SDS011;18622;51.998;10.440;2023-03-01T18:50:10;23.67;;;12.43;;
32106;SDS011;18622;51.998;10.440;2023-03-01T18:52:38;36.20;;;13.27;;
32106;SDS011;18622;51.998;10.440;2023-03-01T18:55:06;30.20;;;12.83;;
32106;SDS011;18622;51.998;10.440;2023-03-01T18:57:34;24.60;;;11.07;;
32106;SDS011;18622;51.998;10.440;2023-03-01T19:00:02;20.47;;;11.07;;
32106;SDS011;18622;51.998;10.440;2023-03-01T19:02:30;18.77;;;10.18;;
32106;SDS011;18622;51.998;10.440;2023-03-01T19:04:57;29.00;;;15.07;;
32106;SDS011;18622;51.998;10.440;2023-03-01T19:07:25;43.57;;;21.07;;
32106;SDS011;18622;51.998;10.440;2023-03-01T19:09:53;27.57;;;13.40;;
32106;SDS011;18622;51.998;10.440;2023-03-01T19:12:21;21.67;;;13.47;;
32106;SDS011;18622;51.998;10.440;2023-03-01T19:14:49;22.63;;;12.47;;
32106;SDS011;18622;51.998;10.440;2023-03-01T19:17:17;20.23;;;11.37;;
32106;SDS011;18622;51.998;10.440;2023-03-01T19:19:46;19.00;;;9.63;;
32106;SDS011;18622;51.998;10.440;2023-03-01T19:22:14;20.80;;;9.98;;
32106;SDS011;18622;51.998;10.440;2023-03-01T19:24:42;16.03;;;9.07;;
32106;SDS011;18622;51.998;10.440;2023-03-01T19:27:10;23.83;;;10.80;;
32106;SDS011;18622;51.998;10.440;2023-03-01T19:29:38;24.93;;;11.23;;
32106;SDS011;18622;51.998;10.440;2023-03-01T19:32:06;22.03;;;11.73;;
32106;SDS011;18622;51.998;10.440;2023-03-01T19:34:34;16.53;;;9.57;;
32106;SDS011;18622;51.998;10.440;2023-03-01T19:37:03;19.57;;;10.55;;
32106;SDS011;18622;51.998;10.440;2023-03-01T19:39:30;18.23;;;8.17;;
32106;SDS011;18622;51.998;10.440;2023-03-01T19:41:58;16.53;;;8.80;;
32106;SDS011;18622;51.998;10.440;2023-03-01T19:44:26;18.03;;;8.53;;
32106;SDS011;18622;51.998;10.440;2023-03-01T19:46:54;20.40;;;10.40;;
32106;SDS011;18622;51.998;10.440;2023-03-01T19:49:23;17.37;;;8.80;;
32106;SDS011;18622;51.998;10.440;2023-03-01T19:51:51;20.00;;;9.43;;
32106;SDS011;18622;51.998;10.440;2023-03-01T19:54:19;18.50;;;8.77;;
32106;SDS011;18622;51.998;10.440;2023-03-01T19:56:52;17.42;;;7.58;;
32106;SDS011;18622;51.998;10.440;2023-03-01T19:59:17;15.10;;;8.23;;
32106;SDS011;18622;51.998;10.440;2023-03-01T20:01:47;20.70;;;9.08;;
32106;SDS011;18622;51.998;10.440;2023-03-01T20:04:14;27.90;;;10.90;;
32106;SDS011;18622;51.998;10.440;2023-03-01T20:06:47;21.67;;;8.60;;
32106;SDS011;18622;51.998;10.440;2023-03-01T20:09:12;27.48;;;11.43;;
32106;SDS011;18622;51.998;10.440;2023-03-01T20:11:41;19.12;;;9.65;;
32106;SDS011;18622;51.998;10.440;2023-03-01T20:14:09;35.93;;;14.57;;
32106;SDS011;18622;51.998;10.440;2023-03-01T20:16:40;45.43;;;18.97;;
32106;SDS011;18622;51.998;10.440;2023-03-01T20:19:07;36.80;;;16.67;;
32106;SDS011;18622;51.998;10.440;2023-03-01T20:21:35;38.23;;;16.87;;
32106;SDS011;18622;51.998;10.440;2023-03-01T20:24:03;93.57;;;36.13;;
32106;SDS011;18622;51.998;10.440;2023-03-01T20:26:31;181.50;;;65.13;;
32106;SDS011;18622;51.998;10.440;2023-03-01T20:28:58;74.23;;;28.70;;
32106;SDS011;18622;51.998;10.440;2023-03-01T20:31:26;32.63;;;15.27;;
32106;SDS011;18622;51.998;10.440;2023-03-01T20:33:55;21.03;;;11.87;;
32106;SDS011;18622;51.998;10.440;2023-03-01T20:36:23;22.17;;;11.93;;
32106;SDS011;18622;51.998;10.440;2023-03-01T20:38:52;24.05;;;13.60;;
32106;SDS011;18622;51.998;10.440;2023-03-01T20:41:20;23.85;;;11.68;;
32106;SDS011;18622;51.998;10.440;2023-03-01T20:43:50;15.38;;;9.80;;
32106;SDS011;18622;51.998;10.440;2023-03-01T20:46:22;15.67;;;9.17;;
32106;SDS011;18622;51.998;10.440;2023-03-01T20:48:51;17.25;;;7.72;;
32106;SDS011;18622;51.998;10.440;2023-03-01T20:51:19;26.80;;;9.43;;
32106;SDS011;18622;51.998;10.440;2023-03-01T20:53:47;22.53;;;10.07;;
32106;SDS011;18622;51.998;10.440;2023-03-01T20:56:16;16.25;;;8.80;;
32106;SDS011;18622;51.998;10.440;2023-03-01T20:58:45;21.48;;;8.70;;
32106;SDS011;18622;51.998;10.440;2023-03-01T21:01:17;15.87;;;8.20;;
32106;SDS011;18622;51.998;10.440;2023-03-01T21:03:46;17.40;;;8.88;;
32106;SDS011;18622;51.998;10.440;2023-03-01T21:06:14;34.63;;;13.40;;
32106;SDS011;18622;51.998;10.440;2023-03-01T21:08:42;22.43;;;9.57;;
32106;SDS011;18622;51.998;10.440;2023-03-01T21:11:10;21.40;;;10.13;;
32106;SDS011;18622;51.998;10.440;2023-03-01T21:13:37;19.10;;;10.07;;
32106;SDS011;18622;51.998;10.440;2023-03-01T21:16:07;16.77;;;8.58;;
32106;SDS011;18622;51.998;10.440;2023-03-01T21:18:38;18.50;;;9.10;;
32106;SDS011;18622;51.998;10.440;2023-03-01T21:21:07;21.20;;;9.85;;
32106;SDS011;18622;51.998;10.440;2023-03-01T21:23:38;17.23;;;8.85;;
32106;SDS011;18622;51.998;10.440;2023-03-01T21:28:39;16.62;;;8.35;;
32106;SDS011;18622;51.998;10.440;2023-03-01T21:31:14;18.12;;;9.03;;
32106;SDS011;18622;51.998;10.440;2023-03-01T21:33:45;20.50;;;8.60;;
32106;SDS011;18622;51.998;10.440;2023-03-01T21:36:15;17.10;;;9.33;;
32106;SDS011;18622;51.998;10.440;2023-03-01T21:38:44;16.93;;;8.35;;
32106;SDS011;18622;51.998;10.440;2023-03-01T21:41:15;18.65;;;8.38;;
32106;SDS011;18622;51.998;10.440;2023-03-01T21:43:45;16.85;;;9.70;;
